Terminal Aerodrome Forecast
Issued by NWS

Home | Current Version | Previous Version | Graphics & Text | Print | Product List | Glossary On
Versions: 1 2 3 4 5 6 7 8 9 10 11 12 13 14 15 16 17 18 19 20 21 22 23 24 25 26 27
000
FTUS43 KBIS 191100
TAFMOT
TAF
KMOT 191138Z 1912/2012 12003KT 3/4SM BR OVC002
      TEMPO 1912/1915 1/4SM FG OVC001
     FM191600 20003KT 3SM BR SCT004 BKN012
     FM192300 VRB03KT P6SM SCT015 BKN070
     FM200600 18005KT P6SM SCT070=

USA.gov is the U.S. government's official web portal to all federal, state and local government web resources and services.